Time;durP1;ratioP1;P1;durP2;ratioP2;P2;SDS_P1;SDS_P2;PMS_P1;PMS_P2;Temp;Humidity;BMP_temperature;BMP_pressure;BME280_temperature;BME280_humidity;BME280_pressure;Samples;Min_cycle;Max_cycle;Signal;HPM_P1;HPM_P2
2022/01/06 00:00:59;;;;;;;3.40;1.50;;;;;;;-141.59;100.00;61776.25;5031645;28;20243;-86
2022/01/06 00:03:27;;;;;;;4.03;2.00;;;;;;;-141.59;100.00;61776.25;5058130;28;20210;-87
2022/01/06 00:05:54;;;;;;;2.27;1.80;;;;;;;-141.59;100.00;61776.25;5044055;28;20290;-87
2022/01/06 00:08:21;;;;;;;2.43;1.40;;;;;;;-141.59;100.00;61776.25;5057068;28;20234;-87
2022/01/06 00:10:51;;;;;;;2.60;1.40;;;;;;;-141.59;100.00;61776.25;5061313;28;20212;-87
2022/01/06 00:13:23;;;;;;;3.43;1.90;;;;;;;-141.59;100.00;61776.25;5063502;28;20299;-86
2022/01/06 00:16:07;;;;;;;4.40;1.60;;;;;;;-141.59;100.00;61776.25;5055925;28;20211;-86
2022/01/06 00:23:04;;;;;;;2.30;1.43;;;;;;;-141.59;100.00;61776.25;5026401;28;20208;-87
2022/01/06 00:24:10;;;;;;;3.17;1.50;;;;;;;-141.59;100.00;61776.25;5039048;28;20261;-86
2022/01/06 00:26:39;;;;;;;4.37;1.40;;;;;;;-141.59;100.00;61776.25;5031352;28;20214;-87
2022/01/06 00:29:06;;;;;;;2.17;1.20;;;;;;;-141.59;100.00;61776.25;5037282;28;20213;-86
2022/01/06 00:31:33;;;;;;;1.53;1.30;;;;;;;-141.59;100.00;61776.25;5023915;28;20221;-87
2022/01/06 00:34:01;;;;;;;2.30;1.27;;;;;;;-141.59;100.00;61776.25;5047919;28;20279;-86
2022/01/06 00:36:29;;;;;;;3.57;1.27;;;;;;;-141.59;100.00;61776.25;5036863;28;20208;-87
2022/01/06 00:38:57;;;;;;;3.47;1.40;;;;;;;-141.59;100.00;61776.25;5055911;28;20554;-87
2022/01/06 00:41:24;;;;;;;3.70;1.40;;;;;;;-141.59;100.00;61776.25;5052425;28;20213;-87
2022/01/06 00:43:52;;;;;;;3.00;1.30;;;;;;;-141.59;100.00;61776.25;5035451;28;20219;-87
2022/01/06 00:46:19;;;;;;;4.37;1.43;;;;;;;-141.59;100.00;61776.25;5027177;28;20221;-87
2022/01/06 00:48:47;;;;;;;1.87;1.27;;;;;;;-141.59;100.00;61776.25;5025293;28;20309;-86
2022/01/06 00:51:14;;;;;;;2.73;1.60;;;;;;;-141.59;100.00;61776.25;5032123;28;20201;-86
2022/01/06 00:53:41;;;;;;;4.80;1.73;;;;;;;-141.59;100.00;61776.25;5046657;28;21409;-86
2022/01/06 00:56:08;;;;;;;5.47;1.50;;;;;;;-141.59;100.00;61776.25;5028023;28;20491;-87
2022/01/06 00:58:35;;;;;;;1.50;1.30;;;;;;;-141.59;100.00;61776.25;5054819;28;20205;-87
2022/01/06 01:01:04;;;;;;;1.43;1.30;;;;;;;-141.59;100.00;61776.25;5029458;28;20251;-86
2022/01/06 01:03:31;;;;;;;1.80;1.40;;;;;;;-141.59;100.00;61776.25;5064116;28;20298;-87
2022/01/06 01:05:59;;;;;;;5.03;1.40;;;;;;;-141.59;100.00;61776.25;5032229;28;20224;-88
2022/01/06 01:08:27;;;;;;;2.00;1.30;;;;;;;-141.59;100.00;61776.25;5031458;28;20208;-88
2022/01/06 01:10:56;;;;;;;2.97;1.40;;;;;;;-141.59;100.00;61776.25;5027480;28;20263;-86
2022/01/06 01:13:29;;;;;;;3.23;1.40;;;;;;;-141.59;100.00;61776.25;5042523;28;20210;-87
2022/01/06 01:16:05;;;;;;;2.50;1.07;;;;;;;-141.59;100.00;61776.25;5028332;28;20293;-88
2022/01/06 01:18:33;;;;;;;3.13;1.53;;;;;;;-141.59;100.00;61776.25;5041079;28;20215;-87
2022/01/06 01:21:01;;;;;;;3.23;1.50;;;;;;;-141.59;100.00;61776.25;5036524;28;20227;-88
2022/01/06 01:23:28;;;;;;;4.50;1.60;;;;;;;-141.59;100.00;61776.25;5042601;28;20213;-87
2022/01/06 01:25:55;;;;;;;2.83;1.30;;;;;;;-141.59;100.00;61776.25;5068886;28;20220;-87
2022/01/06 01:28:32;;;;;;;5.07;1.27;;;;;;;-141.59;100.00;61776.25;5023256;28;20210;-87
2022/01/06 01:31:12;;;;;;;1.77;1.20;;;;;;;-141.59;100.00;61776.25;5032847;28;20215;-86
2022/01/06 01:33:42;;;;;;;3.37;1.20;;;;;;;-141.59;100.00;61776.25;5043170;28;20237;-87
2022/01/06 01:36:09;;;;;;;3.10;1.40;;;;;;;-141.59;100.00;61776.25;5057395;28;20211;-87
2022/01/06 01:38:37;;;;;;;2.20;1.20;;;;;;;-141.59;100.00;61776.25;5029036;28;20235;-86
2022/01/06 01:41:04;;;;;;;4.13;1.57;;;;;;;-141.59;100.00;61776.25;5028272;28;20227;-87
2022/01/06 01:43:31;;;;;;;2.97;1.57;;;;;;;-141.59;100.00;61776.25;5029703;28;20280;-86
2022/01/06 01:46:07;;;;;;;2.27;1.10;;;;;;;-141.59;100.00;61776.25;5062066;28;20206;-87
2022/01/06 01:48:37;;;;;;;2.20;1.30;;;;;;;-141.59;100.00;61776.25;5049723;28;20283;-87
2022/01/06 01:51:08;;;;;;;2.47;1.40;;;;;;;-141.59;100.00;61776.25;5025324;28;20206;-87
2022/01/06 01:53:35;;;;;;;1.37;1.03;;;;;;;-141.59;100.00;61776.25;5044512;28;20256;-87
2022/01/06 01:56:06;;;;;;;1.83;1.23;;;;;;;-141.59;100.00;61776.25;5027826;28;20214;-86
2022/01/06 01:58:34;;;;;;;3.13;1.30;;;;;;;-141.59;100.00;61776.25;5020262;28;20293;-87
2022/01/06 02:01:01;;;;;;;3.87;1.40;;;;;;;-141.59;100.00;61776.25;5031585;28;20221;-86
2022/01/06 02:03:31;;;;;;;5.57;1.40;;;;;;;-141.59;100.00;61776.25;5026718;28;20209;-86
2022/01/06 02:05:58;;;;;;;2.73;1.13;;;;;;;-141.59;100.00;61776.25;5029840;28;20209;-86
2022/01/06 02:08:27;;;;;;;2.43;1.10;;;;;;;-141.59;100.00;61776.25;5055855;28;20268;-87
2022/01/06 02:10:54;;;;;;;3.07;1.30;;;;;;;-141.59;100.00;61776.25;5026453;28;20423;-87
2022/01/06 02:13:24;;;;;;;2.40;1.30;;;;;;;-141.59;100.00;61776.25;5026094;28;20203;-87
2022/01/06 02:15:51;;;;;;;1.63;1.30;;;;;;;-141.59;100.00;61776.25;5026051;28;20227;-86
2022/01/06 02:18:18;;;;;;;3.37;1.27;;;;;;;-141.59;100.00;61776.25;5060172;28;20210;-87
2022/01/06 02:20:46;;;;;;;2.90;1.50;;;;;;;-141.59;100.00;61776.25;5049000;28;20203;-87
2022/01/06 02:23:13;;;;;;;2.40;1.10;;;;;;;-141.59;100.00;61776.25;5036520;28;20197;-87
2022/01/06 02:25:40;;;;;;;3.00;1.87;;;;;;;-141.59;100.00;61776.25;5054416;28;20214;-86
2022/01/06 02:28:07;;;;;;;5.03;1.13;;;;;;;-141.59;100.00;61776.25;5020292;28;20203;-87
2022/01/06 02:30:36;;;;;;;1.30;1.10;;;;;;;-141.59;100.00;61776.25;5057864;28;20213;-86
2022/01/06 02:33:05;;;;;;;2.30;1.30;;;;;;;-141.59;100.00;61776.25;5058982;28;20296;-87
2022/01/06 02:35:33;;;;;;;1.43;1.20;;;;;;;-141.59;100.00;61776.25;5032683;28;20301;-86
2022/01/06 02:38:02;;;;;;;2.10;1.20;;;;;;;-141.59;100.00;61776.25;5030632;28;20226;-88
2022/01/06 02:40:29;;;;;;;3.83;1.27;;;;;;;-141.59;100.00;61776.25;5026253;28;20221;-86
2022/01/06 02:42:58;;;;;;;2.83;1.03;;;;;;;-141.59;100.00;61776.25;5062797;28;20202;-86
2022/01/06 02:45:27;;;;;;;4.13;1.50;;;;;;;-141.59;100.00;61776.25;5032042;28;20298;-88
2022/01/06 02:47:55;;;;;;;2.97;1.40;;;;;;;-141.59;100.00;61776.25;5029642;28;20198;-87
2022/01/06 02:50:23;;;;;;;3.77;1.47;;;;;;;-141.59;100.00;61776.25;5026935;28;20201;-86
2022/01/06 02:52:51;;;;;;;4.73;2.13;;;;;;;-141.59;100.00;61776.25;5056608;28;20203;-86
2022/01/06 02:55:19;;;;;;;4.27;1.33;;;;;;;-141.59;100.00;61776.25;5066514;28;20229;-87
2022/01/06 02:57:47;;;;;;;1.90;1.30;;;;;;;-141.59;100.00;61776.25;5058149;28;20209;-86
2022/01/06 03:00:16;;;;;;;3.93;1.40;;;;;;;-141.59;100.00;61776.25;5029609;28;20206;-87
2022/01/06 03:02:46;;;;;;;3.30;1.30;;;;;;;-141.59;100.00;61776.25;5063546;28;20241;-87
2022/01/06 03:05:14;;;;;;;2.50;1.17;;;;;;;-141.59;100.00;61776.25;5063731;28;20210;-86
2022/01/06 03:07:41;;;;;;;2.47;1.40;;;;;;;-141.59;100.00;61776.25;5030876;28;20207;-86
2022/01/06 03:10:12;;;;;;;3.00;1.30;;;;;;;-141.59;100.00;61776.25;5028461;28;20218;-87
2022/01/06 03:12:41;;;;;;;3.90;1.53;;;;;;;-141.59;100.00;61776.25;5047412;28;20217;-87
2022/01/06 03:15:11;;;;;;;1.97;1.50;;;;;;;-141.59;100.00;61776.25;5037883;28;20214;-86
2022/01/06 03:17:39;;;;;;;3.20;1.37;;;;;;;-141.59;100.00;61776.25;5023269;28;20210;-87
2022/01/06 03:20:09;;;;;;;2.23;1.40;;;;;;;-141.59;100.00;61776.25;5049989;28;20213;-86
2022/01/06 03:22:36;;;;;;;4.07;1.30;;;;;;;-141.59;100.00;61776.25;5026285;28;20209;-86
2022/01/06 03:25:05;;;;;;;4.73;1.57;;;;;;;-141.59;100.00;61776.25;5039488;28;20209;-87
2022/01/06 03:27:33;;;;;;;1.57;1.30;;;;;;;-141.59;100.00;61776.25;5035799;28;20244;-87
2022/01/06 03:30:02;;;;;;;2.33;1.30;;;;;;;-141.59;100.00;61776.25;5037419;28;20205;-87
2022/01/06 03:32:29;;;;;;;2.73;1.20;;;;;;;-141.59;100.00;61776.25;5038534;28;20212;-87
2022/01/06 03:34:56;;;;;;;3.87;1.47;;;;;;;-141.59;100.00;61776.25;5036403;28;20222;-86
2022/01/06 03:37:24;;;;;;;2.17;1.30;;;;;;;-141.59;100.00;61776.25;5044958;28;20296;-86
2022/01/06 03:39:51;;;;;;;2.83;1.30;;;;;;;-141.59;100.00;61776.25;5065674;28;20211;-86
2022/01/06 03:42:18;;;;;;;5.33;1.40;;;;;;;-141.59;100.00;61776.25;5029865;28;20212;-86
2022/01/06 03:44:45;;;;;;;2.60;1.40;;;;;;;-141.59;100.00;61776.25;5038612;28;20244;-88
2022/01/06 03:47:13;;;;;;;2.07;1.20;;;;;;;-141.59;100.00;61776.25;5047060;28;20211;-86
2022/01/06 03:49:40;;;;;;;4.67;1.47;;;;;;;-141.59;100.00;61776.25;5029473;28;20237;-87
2022/01/06 03:52:07;;;;;;;2.23;1.20;;;;;;;-141.59;100.00;61776.25;5032065;28;20207;-87
2022/01/06 03:54:34;;;;;;;1.47;1.10;;;;;;;-141.59;100.00;61776.25;5026054;28;20209;-87
2022/01/06 03:57:01;;;;;;;2.37;1.23;;;;;;;-141.59;100.00;61776.25;5054949;28;20306;-87
2022/01/06 03:59:29;;;;;;;3.87;1.57;;;;;;;-141.59;100.00;61776.25;5055719;28;20218;-88
2022/01/06 04:01:56;;;;;;;3.17;1.30;;;;;;;-141.59;100.00;61776.25;5059196;28;20213;-87
2022/01/06 04:04:24;;;;;;;2.40;1.60;;;;;;;-141.59;100.00;61776.25;5030949;28;20299;-86
2022/01/06 04:06:51;;;;;;;3.47;1.30;;;;;;;-141.59;100.00;61776.25;5056669;28;20271;-87
2022/01/06 04:09:18;;;;;;;4.37;1.90;;;;;;;-141.59;100.00;61776.25;5029700;28;20221;-87
2022/01/06 04:11:45;;;;;;;3.47;1.60;;;;;;;-141.59;100.00;61776.25;5052577;28;20300;-87
2022/01/06 04:14:12;;;;;;;2.87;1.70;;;;;;;-141.59;100.00;61776.25;5047071;28;20206;-86
2022/01/06 04:16:40;;;;;;;4.63;1.50;;;;;;;-141.59;100.00;61776.25;5059191;28;20226;-87
2022/01/06 04:19:07;;;;;;;4.40;1.30;;;;;;;-141.59;100.00;61776.25;5064274;28;20208;-88
2022/01/06 04:21:36;;;;;;;1.80;1.20;;;;;;;-141.59;100.00;61776.25;5033191;28;20194;-88
2022/01/06 04:24:04;;;;;;;5.70;1.40;;;;;;;-141.59;100.00;61776.25;5031019;28;20213;-87
2022/01/06 04:26:31;;;;;;;4.70;1.20;;;;;;;-141.59;100.00;61776.25;5032674;28;20255;-86
2022/01/06 04:28:58;;;;;;;2.17;1.53;;;;;;;-141.59;100.00;61776.25;5034601;28;20219;-87
2022/01/06 04:31:25;;;;;;;3.07;1.60;;;;;;;-141.59;100.00;61776.25;5027747;28;20209;-88
2022/01/06 04:33:52;;;;;;;1.43;1.27;;;;;;;-141.59;100.00;61776.25;5034993;28;20200;-87
2022/01/06 04:36:20;;;;;;;1.40;1.30;;;;;;;-141.59;100.00;61776.25;5048389;28;20223;-87
2022/01/06 04:38:48;;;;;;;2.30;1.40;;;;;;;-141.59;100.00;61776.25;5030228;28;20244;-87
2022/01/06 04:41:15;;;;;;;4.03;1.70;;;;;;;-141.59;100.00;61776.25;5030130;28;20209;-87
2022/01/06 04:43:43;;;;;;;2.37;1.20;;;;;;;-141.59;100.00;61776.25;5030495;28;20217;-87
2022/01/06 04:46:10;;;;;;;5.17;1.70;;;;;;;-141.59;100.00;61776.25;5025178;28;20213;-87
2022/01/06 04:48:37;;;;;;;2.97;1.50;;;;;;;-141.59;100.00;61776.25;5033049;28;20337;-87
2022/01/06 04:51:05;;;;;;;4.03;1.63;;;;;;;-141.59;100.00;61776.25;5030506;28;20258;-86
2022/01/06 04:53:32;;;;;;;1.17;1.00;;;;;;;-141.59;100.00;61776.25;5026844;28;20247;-87
2022/01/06 04:56:00;;;;;;;3.60;1.67;;;;;;;-141.59;100.00;61776.25;5040756;28;20306;-87
2022/01/06 04:58:28;;;;;;;3.40;1.40;;;;;;;-141.59;100.00;61776.25;5043993;28;20253;-87
2022/01/06 05:00:55;;;;;;;3.33;1.43;;;;;;;-141.59;100.00;61776.25;5041600;28;20237;-87
2022/01/06 05:03:22;;;;;;;3.07;1.40;;;;;;;-141.59;100.00;61776.25;5022250;28;20215;-86
2022/01/06 05:05:49;;;;;;;5.80;2.90;;;;;;;-141.59;100.00;61776.25;5038889;28;20302;-87
2022/01/06 05:08:16;;;;;;;5.63;2.27;;;;;;;-141.59;100.00;61776.25;5052383;28;20198;-87
2022/01/06 05:10:43;;;;;;;3.00;1.40;;;;;;;-141.59;100.00;61776.25;5030946;28;20209;-87
2022/01/06 05:13:11;;;;;;;6.37;1.33;;;;;;;-141.59;100.00;61776.25;5031765;28;20277;-87
2022/01/06 05:15:38;;;;;;;5.00;1.40;;;;;;;-141.59;100.00;61776.25;5040536;28;20222;-87
2022/01/06 05:18:05;;;;;;;3.27;1.17;;;;;;;-141.59;100.00;61776.25;5032088;28;20305;-87
2022/01/06 05:20:33;;;;;;;4.17;1.70;;;;;;;-141.59;100.00;61776.25;5033392;28;20211;-87
2022/01/06 05:23:00;;;;;;;2.73;1.33;;;;;;;-141.59;100.00;61776.25;5060741;28;20198;-87
2022/01/06 05:25:30;;;;;;;2.23;1.70;;;;;;;-141.59;100.00;61776.25;5056825;28;20243;-87
2022/01/06 05:27:57;;;;;;;4.90;1.70;;;;;;;-141.59;100.00;61776.25;5061509;28;20266;-88
2022/01/06 05:30:26;;;;;;;4.27;1.93;;;;;;;-141.59;100.00;61776.25;5031077;28;20203;-86
2022/01/06 05:32:53;;;;;;;3.70;1.43;;;;;;;-141.59;100.00;61776.25;5026875;28;20255;-86
2022/01/06 05:35:20;;;;;;;2.90;1.40;;;;;;;-141.59;100.00;61776.25;5062960;28;20245;-86
2022/01/06 05:37:47;;;;;;;1.83;1.43;;;;;;;-141.59;100.00;61776.25;5052409;28;20259;-87
2022/01/06 05:40:15;;;;;;;2.13;1.30;;;;;;;-141.59;100.00;61776.25;5047809;28;20228;-87
2022/01/06 05:42:42;;;;;;;4.60;1.60;;;;;;;-141.59;100.00;61776.25;5024984;28;20205;-87
2022/01/06 05:45:11;;;;;;;2.77;1.50;;;;;;;-141.59;100.00;61776.25;5033664;28;20217;-86
2022/01/06 05:47:40;;;;;;;2.37;1.40;;;;;;;-141.59;100.00;61776.25;5040409;28;20202;-87
2022/01/06 05:50:09;;;;;;;2.13;1.40;;;;;;;-141.59;100.00;61776.25;5026754;28;20318;-86
2022/01/06 05:52:36;;;;;;;3.87;1.77;;;;;;;-141.59;100.00;61776.25;5039532;28;20213;-86
2022/01/06 05:55:04;;;;;;;2.13;1.33;;;;;;;-141.59;100.00;61776.25;5060261;28;20236;-86
2022/01/06 05:57:31;;;;;;;2.50;1.67;;;;;;;-141.59;100.00;61776.25;5029078;28;20213;-87
2022/01/06 05:59:59;;;;;;;3.57;1.20;;;;;;;-141.59;100.00;61776.25;5028897;28;20277;-86
2022/01/06 06:02:26;;;;;;;3.53;1.50;;;;;;;-141.59;100.00;61776.25;5043072;28;20248;-86
2022/01/06 06:04:54;;;;;;;3.53;1.50;;;;;;;-141.59;100.00;61776.25;5028328;28;20305;-87
2022/01/06 06:07:21;;;;;;;3.90;1.73;;;;;;;-141.59;100.00;61776.25;5065197;28;20303;-86
2022/01/06 06:09:48;;;;;;;2.03;1.30;;;;;;;-141.59;100.00;61776.25;5033545;28;20217;-87
2022/01/06 06:12:15;;;;;;;3.83;1.70;;;;;;;-141.59;100.00;61776.25;5035359;28;20212;-86
2022/01/06 06:14:43;;;;;;;5.07;1.73;;;;;;;-141.59;100.00;61776.25;5023862;28;20276;-86
2022/01/06 06:17:10;;;;;;;2.13;1.50;;;;;;;-141.59;100.00;61776.25;5034925;28;20308;-85
2022/01/06 06:19:37;;;;;;;3.40;1.50;;;;;;;-141.59;100.00;61776.25;5031773;28;20209;-88
2022/01/06 06:22:06;;;;;;;3.37;1.60;;;;;;;-141.59;100.00;61776.25;5024475;28;20193;-87
2022/01/06 06:24:33;;;;;;;5.00;1.77;;;;;;;-141.59;100.00;61776.25;5054748;28;20308;-86
2022/01/06 06:27:00;;;;;;;4.60;1.80;;;;;;;-141.59;100.00;61776.25;5033402;28;20214;-87
2022/01/06 06:29:27;;;;;;;3.93;1.70;;;;;;;-141.59;100.00;61776.25;5024506;28;20217;-86
2022/01/06 06:31:54;;;;;;;3.53;1.90;;;;;;;-141.59;100.00;61776.25;5056298;28;20306;-86
2022/01/06 06:34:22;;;;;;;6.27;2.47;;;;;;;-141.59;100.00;61776.25;5049949;28;20206;-86
2022/01/06 06:36:49;;;;;;;6.13;2.20;;;;;;;-141.59;100.00;61776.25;5052749;28;20233;-86
2022/01/06 06:39:17;;;;;;;3.23;2.50;;;;;;;-141.59;100.00;61776.25;5029049;28;20315;-87
2022/01/06 06:41:44;;;;;;;4.10;2.20;;;;;;;-141.59;100.00;61776.25;5066218;28;20201;-86
2022/01/06 06:44:12;;;;;;;3.77;2.20;;;;;;;-141.59;100.00;61776.25;5024278;28;20215;-87
2022/01/06 06:46:39;;;;;;;4.07;2.60;;;;;;;-141.59;100.00;61776.25;5047003;28;20216;-87
2022/01/06 06:49:07;;;;;;;4.70;2.73;;;;;;;-141.59;100.00;61776.25;5052067;28;20217;-87
2022/01/06 06:51:34;;;;;;;7.27;3.67;;;;;;;-141.59;100.00;61776.25;5054076;28;20212;-87
2022/01/06 06:54:01;;;;;;;8.93;4.33;;;;;;;-141.59;100.00;61776.25;5026162;28;20221;-87
2022/01/06 06:56:30;;;;;;;8.10;3.90;;;;;;;-141.59;100.00;61776.25;5053247;28;20332;-87
2022/01/06 06:58:57;;;;;;;7.17;3.40;;;;;;;-141.59;100.00;61776.25;5035023;28;20235;-86
2022/01/06 07:01:24;;;;;;;5.63;3.00;;;;;;;-141.59;100.00;61776.25;5025574;28;20233;-87
2022/01/06 07:03:51;;;;;;;3.63;2.60;;;;;;;-141.59;100.00;61776.25;5033530;28;20201;-87
2022/01/06 07:06:18;;;;;;;5.67;2.57;;;;;;;-141.59;100.00;61776.25;5020658;28;20208;-87
2022/01/06 07:08:45;;;;;;;5.80;2.70;;;;;;;-141.59;100.00;61776.25;5055769;28;20213;-87
2022/01/06 07:11:12;;;;;;;4.70;2.43;;;;;;;-141.59;100.00;61776.25;5048956;28;20198;-87
2022/01/06 07:13:41;;;;;;;4.47;2.50;;;;;;;-141.59;100.00;61776.25;5046791;28;20207;-87
2022/01/06 07:16:08;;;;;;;7.70;3.10;;;;;;;-141.59;100.00;61776.25;5019833;28;20228;-87
2022/01/06 07:18:35;;;;;;;4.43;2.83;;;;;;;-141.59;100.00;61776.25;5020821;28;20198;-87
2022/01/06 07:21:02;;;;;;;7.90;3.20;;;;;;;-141.59;100.00;61776.25;5031743;28;20296;-87
2022/01/06 07:23:29;;;;;;;5.13;2.70;;;;;;;-141.59;100.00;61776.25;5047754;28;20211;-88
2022/01/06 07:25:56;;;;;;;4.50;2.20;;;;;;;-141.59;100.00;61776.25;5047130;28;20296;-87
2022/01/06 07:28:24;;;;;;;7.73;2.53;;;;;;;-141.59;100.00;61776.25;5029303;28;20210;-87
2022/01/06 07:30:52;;;;;;;6.53;2.60;;;;;;;-141.59;100.00;61776.25;5020502;28;20210;-86
2022/01/06 07:33:19;;;;;;;4.73;2.77;;;;;;;-141.59;100.00;61776.25;5064801;28;20200;-86
2022/01/06 07:35:46;;;;;;;5.37;2.53;;;;;;;-141.59;100.00;61776.25;5042945;28;20210;-87
2022/01/06 07:38:14;;;;;;;5.93;2.10;;;;;;;-141.59;100.00;61776.25;5024338;28;20321;-87
2022/01/06 07:40:41;;;;;;;4.07;2.10;;;;;;;-141.59;100.00;61776.25;5027359;28;20311;-87
2022/01/06 07:43:09;;;;;;;3.23;1.97;;;;;;;-141.59;100.00;61776.25;5034725;28;20207;-87
2022/01/06 07:45:36;;;;;;;5.03;2.10;;;;;;;-141.59;100.00;61776.25;5029223;28;20270;-86
2022/01/06 07:48:15;;;;;;;7.90;2.13;;;;;;;-141.59;100.00;61776.25;5045334;28;20226;-87
2022/01/06 07:50:42;;;;;;;3.07;1.90;;;;;;;-141.59;100.00;61776.25;5060487;28;20283;-86
2022/01/06 07:53:09;;;;;;;2.80;1.70;;;;;;;-141.59;100.00;61776.25;5021394;28;20224;-87
2022/01/06 07:55:36;;;;;;;4.37;2.17;;;;;;;-141.59;100.00;61776.25;5034347;28;20301;-87
2022/01/06 07:58:04;;;;;;;5.67;2.10;;;;;;;-141.59;100.00;61776.25;5023156;28;20233;-87
2022/01/06 08:00:32;;;;;;;3.50;1.43;;;;;;;-141.59;100.00;61776.25;5030697;28;20229;-88
2022/01/06 08:02:59;;;;;;;4.07;1.87;;;;;;;-141.59;100.00;61776.25;5017433;28;20211;-87
2022/01/06 08:05:28;;;;;;;5.50;1.60;;;;;;;-141.59;100.00;61776.25;5035005;28;20217;-86
2022/01/06 08:07:56;;;;;;;5.77;1.83;;;;;;;-141.59;100.00;61776.25;5034840;28;20263;-86
2022/01/06 08:10:23;;;;;;;6.87;2.10;;;;;;;-141.59;100.00;61776.25;5056804;28;20335;-87
2022/01/06 08:12:51;;;;;;;4.13;2.00;;;;;;;-141.59;100.00;61776.25;5059727;28;20295;-86
2022/01/06 08:15:18;;;;;;;4.37;2.27;;;;;;;-141.59;100.00;61776.25;5040851;28;20253;-87
2022/01/06 08:17:45;;;;;;;3.20;1.93;;;;;;;-141.59;100.00;61776.25;5037144;28;20223;-87
2022/01/06 08:20:12;;;;;;;3.40;1.80;;;;;;;-141.59;100.00;61776.25;5036615;28;20273;-87
2022/01/06 08:22:41;;;;;;;3.70;2.00;;;;;;;-141.59;100.00;61776.25;5030851;28;20306;-87
2022/01/06 08:25:10;;;;;;;5.70;2.60;;;;;;;-141.59;100.00;61776.25;5037818;28;20202;-86
2022/01/06 08:27:37;;;;;;;3.87;2.40;;;;;;;-141.59;100.00;61776.25;5066690;28;20208;-87
2022/01/06 08:30:06;;;;;;;6.73;2.87;;;;;;;-141.59;100.00;61776.25;5049261;28;20213;-87
2022/01/06 08:32:33;;;;;;;4.37;2.00;;;;;;;-141.59;100.00;61776.25;5028445;28;20241;-87
2022/01/06 08:35:00;;;;;;;4.27;1.90;;;;;;;-141.59;100.00;61776.25;5035808;28;20209;-87
2022/01/06 08:37:28;;;;;;;3.77;1.97;;;;;;;-141.59;100.00;61776.25;5024711;28;20233;-87
2022/01/06 08:39:56;;;;;;;4.90;2.10;;;;;;;-141.59;100.00;61776.25;5033781;28;20199;-87
2022/01/06 08:42:23;;;;;;;3.17;2.30;;;;;;;-141.59;100.00;61776.25;5042501;28;20290;-84
2022/01/06 08:44:51;;;;;;;2.27;1.70;;;;;;;-141.59;100.00;61776.25;5041962;28;20218;-85
2022/01/06 08:47:18;;;;;;;7.80;1.97;;;;;;;-141.59;100.00;61776.25;5028643;28;20213;-85
2022/01/06 08:49:48;;;;;;;3.67;1.60;;;;;;;-141.59;100.00;61776.25;5036550;28;20295;-87
2022/01/06 08:52:15;;;;;;;2.17;1.40;;;;;;;-141.59;100.00;61776.25;5040634;28;20198;-87
2022/01/06 08:54:42;;;;;;;8.00;2.70;;;;;;;-141.59;100.00;61776.25;5028318;28;20211;-88
2022/01/06 08:57:11;;;;;;;9.07;4.60;;;;;;;-141.59;100.00;61776.25;5038827;28;20601;-87
2022/01/06 08:59:38;;;;;;;10.27;4.27;;;;;;;-141.59;100.00;61776.25;5049752;28;20303;-87
2022/01/06 09:02:05;;;;;;;9.50;3.90;;;;;;;-141.59;100.00;61776.25;5017005;28;20268;-88
2022/01/06 09:04:33;;;;;;;5.50;2.73;;;;;;;-141.59;100.00;61776.25;5018924;28;20206;-88
2022/01/06 09:07:02;;;;;;;7.53;2.80;;;;;;;-141.59;100.00;61776.25;5051924;28;20243;-87
2022/01/06 09:09:29;;;;;;;5.73;2.70;;;;;;;-141.59;100.00;61776.25;5030034;28;20209;-87
2022/01/06 09:11:57;;;;;;;6.67;2.27;;;;;;;-141.59;100.00;61776.25;5026549;28;20198;-87
2022/01/06 09:14:29;;;;;;;3.27;2.00;;;;;;;-141.59;100.00;61776.25;5020167;28;20202;-88
2022/01/06 09:16:56;;;;;;;4.13;2.20;;;;;;;-141.59;100.00;61776.25;5032059;28;20226;-88
2022/01/06 09:19:23;;;;;;;4.03;1.60;;;;;;;-141.59;100.00;61776.25;5026118;28;20213;-88
2022/01/06 09:21:50;;;;;;;6.10;2.10;;;;;;;-141.59;100.00;61776.25;5027715;28;20210;-87
2022/01/06 09:24:18;;;;;;;3.00;1.80;;;;;;;-141.59;100.00;61776.25;5037502;28;20202;-87
2022/01/06 09:26:45;;;;;;;7.17;2.00;;;;;;;-141.59;100.00;61776.25;5037818;28;20217;-86
2022/01/06 09:29:13;;;;;;;3.33;1.77;;;;;;;-141.59;100.00;61776.25;5027133;28;20286;-87
2022/01/06 09:31:43;;;;;;;4.77;1.77;;;;;;;-141.59;100.00;61776.25;5044674;28;20213;-87
2022/01/06 09:34:11;;;;;;;2.27;1.90;;;;;;;-141.59;100.00;61776.25;5040999;28;20205;-87
2022/01/06 09:36:39;;;;;;;3.53;2.20;;;;;;;-141.59;100.00;61776.25;5020233;28;20232;-87
2022/01/06 09:39:08;;;;;;;5.90;2.87;;;;;;;-141.59;100.00;61776.25;5026818;28;20236;-86
2022/01/06 09:41:35;;;;;;;3.70;2.10;;;;;;;-141.59;100.00;61776.25;5025758;28;20296;-87
2022/01/06 09:44:02;;;;;;;5.90;2.40;;;;;;;-141.59;100.00;61776.25;5035108;28;20292;-88
2022/01/06 09:46:30;;;;;;;5.97;2.67;;;;;;;-141.59;100.00;61776.25;5040430;28;20246;-88
2022/01/06 09:49:00;;;;;;;4.67;2.40;;;;;;;-141.59;100.00;61776.25;5030750;28;20221;-87
2022/01/06 09:51:29;;;;;;;4.63;2.20;;;;;;;-141.59;100.00;61776.25;5052474;28;20262;-88
2022/01/06 09:54:00;;;;;;;5.40;2.30;;;;;;;-141.59;100.00;61776.25;5059069;28;20213;-86
2022/01/06 09:56:27;;;;;;;7.73;2.50;;;;;;;-141.59;100.00;61776.25;5036452;28;20209;-87
2022/01/06 09:58:55;;;;;;;5.57;2.47;;;;;;;-141.59;100.00;61776.25;5039002;28;20251;-87
2022/01/06 10:01:22;;;;;;;3.50;2.00;;;;;;;-141.59;100.00;61776.25;5029630;28;20347;-88
2022/01/06 10:03:50;;;;;;;3.87;2.30;;;;;;;-141.59;100.00;61776.25;5032791;28;20228;-87
2022/01/06 10:06:21;;;;;;;4.97;2.60;;;;;;;-141.59;100.00;61776.25;5063593;28;20227;-87
2022/01/06 10:08:53;;;;;;;5.07;2.03;;;;;;;-141.59;100.00;61776.25;5040370;28;20216;-87
2022/01/06 10:11:23;;;;;;;8.20;2.23;;;;;;;-141.59;100.00;61776.25;5047968;28;20304;-88
2022/01/06 10:13:58;;;;;;;4.47;2.00;;;;;;;-141.59;100.00;61776.25;5057282;28;20213;-88
2022/01/06 10:16:26;;;;;;;4.17;1.40;;;;;;;-141.59;100.00;61776.25;5065249;28;20201;-89
2022/01/06 10:19:03;;;;;;;3.33;1.80;;;;;;;-141.59;100.00;61776.25;5029022;28;20214;-88
2022/01/06 10:21:38;;;;;;;3.20;1.53;;;;;;;-141.59;100.00;61776.25;5031148;28;20338;-88
2022/01/06 10:24:08;;;;;;;2.93;1.90;;;;;;;-141.59;100.00;61776.25;5042683;28;20238;-88
2022/01/06 10:26:37;;;;;;;3.57;1.67;;;;;;;-141.59;100.00;61776.25;5048600;28;20209;-87
2022/01/06 10:29:09;;;;;;;2.27;1.37;;;;;;;-141.59;100.00;61776.25;5033707;28;20245;-88
2022/01/06 10:31:36;;;;;;;2.83;1.77;;;;;;;-141.59;100.00;61776.25;5054192;28;20198;-87
2022/01/06 10:34:12;;;;;;;3.63;1.80;;;;;;;-141.59;100.00;61776.25;5021228;28;20212;-87
2022/01/06 10:36:41;;;;;;;5.60;1.80;;;;;;;-141.59;100.00;61776.25;5021416;28;20249;-87
2022/01/06 10:39:10;;;;;;;3.00;2.17;;;;;;;-141.59;100.00;61776.25;5044302;28;20330;-87
2022/01/06 10:41:39;;;;;;;4.10;2.03;;;;;;;-141.59;100.00;61776.25;5030058;28;20228;-88
2022/01/06 10:44:10;;;;;;;3.47;1.77;;;;;;;-141.59;100.00;61776.25;5035216;28;20279;-88
2022/01/06 10:46:39;;;;;;;2.63;1.50;;;;;;;-141.59;100.00;61776.25;5023012;28;20652;-88
2022/01/06 10:49:08;;;;;;;3.20;1.30;;;;;;;-141.59;100.00;61776.25;5021549;28;20214;-88
2022/01/06 10:51:43;;;;;;;3.40;1.43;;;;;;;-141.59;100.00;61776.25;5030482;28;20221;-89
2022/01/06 10:54:16;;;;;;;3.70;1.40;;;;;;;-141.59;100.00;61776.25;5035934;28;20260;-89
2022/01/06 10:56:55;;;;;;;2.67;1.23;;;;;;;-141.59;100.00;61776.25;5022264;28;20299;-88
2022/01/06 10:59:25;;;;;;;2.93;1.43;;;;;;;-141.59;100.00;61776.25;5025770;28;20221;-89
2022/01/06 11:01:53;;;;;;;5.13;1.57;;;;;;;-141.59;100.00;61776.25;5053899;28;20218;-88
2022/01/06 11:04:20;;;;;;;2.30;1.30;;;;;;;-141.59;100.00;61776.25;5034282;28;20270;-89
2022/01/06 11:06:50;;;;;;;1.90;1.33;;;;;;;-141.59;100.00;61776.25;5026493;28;20211;-88
2022/01/06 11:09:17;;;;;;;2.57;1.70;;;;;;;-141.59;100.00;61776.25;5037056;28;20376;-87
2022/01/06 11:12:26;;;;;;;3.47;2.03;;;;;;;-141.59;100.00;61776.25;5057079;28;20202;-89
2022/01/06 11:14:33;;;;;;;4.53;1.93;;;;;;;-141.59;100.00;61776.25;5039910;28;20202;-87
2022/01/06 11:17:00;;;;;;;4.33;1.97;;;;;;;-141.59;100.00;61776.25;5035257;28;20312;-88